Time;durP1;ratioP1;P1;durP2;ratioP2;P2;SDS_P1;SDS_P2;PMS_P1;PMS_P2;Temp;Humidity;BMP_temperature;BMP_pressure;BME280_temperature;BME280_humidity;BME280_pressure;Samples;Min_cycle;Max_cycle;Signal;HPM_P1;HPM_P2
2022/04/21 00:02:25;;;;;;;12.43;9.13;;;;;;;;;;5053315;28;20029;-81
2022/04/21 00:04:50;;;;;;;10.60;9.43;;;;;;;;;;5027545;28;20033;-83
2022/04/21 00:07:16;;;;;;;12.70;9.85;;;;;;;;;;5051521;28;20395;-82
2022/04/21 00:09:41;;;;;;;10.65;9.13;;;;;;;;;;5057484;28;20040;-81
2022/04/21 00:12:06;;;;;;;13.10;9.48;;;;;;;;;;5059050;28;20111;-82
2022/04/21 00:14:31;;;;;;;13.52;10.10;;;;;;;;;;5055644;28;20027;-83
2022/04/21 00:16:57;;;;;;;12.57;10.02;;;;;;;;;;5051479;28;20017;-82
2022/04/21 00:19:22;;;;;;;11.10;9.60;;;;;;;;;;5051164;28;21093;-82
2022/04/21 00:24:32;;;;;;;10.82;9.15;;;;;;;;;;5063473;28;20503;-82
2022/04/21 00:26:57;;;;;;;14.60;9.73;;;;;;;;;;5063017;28;20021;-81
2022/04/21 00:29:22;;;;;;;12.45;9.85;;;;;;;;;;5053768;28;20483;-81
2022/04/21 00:31:47;;;;;;;11.40;9.65;;;;;;;;;;5057052;28;20165;-82
2022/04/21 00:34:13;;;;;;;11.98;9.10;;;;;;;;;;5054879;28;20036;-82
2022/04/21 00:36:38;;;;;;;12.75;9.43;;;;;;;;;;5059499;28;20024;-81
2022/04/21 00:39:07;;;;;;;11.85;9.93;;;;;;;;;;5045157;28;20119;-81
2022/04/21 00:41:33;;;;;;;12.88;9.13;;;;;;;;;;5055372;28;20021;-82
2022/04/21 00:43:58;;;;;;;11.00;9.82;;;;;;;;;;5071366;28;20032;-80
2022/04/21 00:46:23;;;;;;;11.73;10.00;;;;;;;;;;5037959;28;20033;-81
2022/04/21 00:48:49;;;;;;;11.80;9.05;;;;;;;;;;5042749;28;20029;-82
2022/04/21 00:51:14;;;;;;;10.93;9.00;;;;;;;;;;5047421;28;20135;-82
2022/04/21 00:53:39;;;;;;;11.38;9.73;;;;;;;;;;5025471;28;20033;-82
2022/04/21 00:56:06;;;;;;;11.32;9.50;;;;;;;;;;5064631;28;20067;-84
2022/04/21 00:58:33;;;;;;;11.40;9.57;;;;;;;;;;5047441;28;20013;-80
2022/04/21 01:00:58;;;;;;;11.82;9.85;;;;;;;;;;5066217;28;20720;-81
2022/04/21 01:03:23;;;;;;;11.30;9.80;;;;;;;;;;5052159;28;20028;-82
2022/04/21 01:05:49;;;;;;;11.65;9.25;;;;;;;;;;5039234;28;20028;-82
2022/04/21 01:08:14;;;;;;;11.98;10.10;;;;;;;;;;5063423;28;20341;-82
2022/04/21 01:10:41;;;;;;;11.15;9.30;;;;;;;;;;5058084;28;20695;-81
2022/04/21 01:13:09;;;;;;;10.55;8.90;;;;;;;;;;5060353;28;20067;-80
2022/04/21 01:15:38;;;;;;;11.00;9.43;;;;;;;;;;5067441;28;20051;-82
2022/04/21 01:18:13;;;;;;;10.85;9.00;;;;;;;;;;5055595;28;20123;-81
2022/04/21 01:20:39;;;;;;;12.35;9.05;;;;;;;;;;5055223;28;20138;-82
2022/04/21 01:23:07;;;;;;;12.25;9.13;;;;;;;;;;5061550;28;20020;-83
2022/04/21 01:25:39;;;;;;;11.02;9.38;;;;;;;;;;5060675;28;20016;-82
2022/04/21 01:28:04;;;;;;;11.75;9.07;;;;;;;;;;5062257;28;20030;-81
2022/04/21 01:30:30;;;;;;;13.32;9.95;;;;;;;;;;5051649;28;20033;-81
2022/04/21 01:32:56;;;;;;;13.90;9.52;;;;;;;;;;5051443;28;20052;-82
2022/04/21 01:35:21;;;;;;;12.18;9.68;;;;;;;;;;5057547;28;20056;-81
2022/04/21 01:43:15;;;;;;;11.77;9.40;;;;;;;;;;5057760;28;20442;-80
2022/04/21 01:45:41;;;;;;;10.82;9.27;;;;;;;;;;5068467;28;20478;-81
2022/04/21 01:48:12;;;;;;;11.98;9.88;;;;;;;;;;5064392;28;20006;-82
2022/04/21 01:50:37;;;;;;;12.55;10.05;;;;;;;;;;5065738;28;20029;-81
2022/04/21 01:53:02;;;;;;;10.57;8.55;;;;;;;;;;5056733;28;20025;-81
2022/04/21 01:55:28;;;;;;;12.35;9.80;;;;;;;;;;5052701;28;20483;-82
2022/04/21 01:57:53;;;;;;;12.38;9.65;;;;;;;;;;5058441;28;20352;-82
2022/04/21 02:00:18;;;;;;;11.48;8.45;;;;;;;;;;5051365;28;20112;-81
2022/04/21 02:02:44;;;;;;;11.55;9.32;;;;;;;;;;5057772;28;20024;-82
2022/04/21 02:05:09;;;;;;;13.88;9.35;;;;;;;;;;5058119;28;20109;-82
2022/04/21 02:07:36;;;;;;;11.68;9.20;;;;;;;;;;5062032;28;20076;-81
2022/04/21 02:10:02;;;;;;;12.68;9.52;;;;;;;;;;5068441;28;20031;-81
2022/04/21 02:12:28;;;;;;;9.82;8.40;;;;;;;;;;5064153;28;20032;-82
2022/04/21 02:14:54;;;;;;;11.77;9.02;;;;;;;;;;5034297;28;20471;-82
2022/04/21 02:17:19;;;;;;;11.52;8.82;;;;;;;;;;5051646;28;20052;-82
2022/04/21 02:19:44;;;;;;;10.75;9.60;;;;;;;;;;5057827;28;20115;-82
2022/04/21 02:22:09;;;;;;;10.90;9.30;;;;;;;;;;5051139;28;20338;-82
2022/04/21 02:24:35;;;;;;;11.35;8.52;;;;;;;;;;5059707;28;20044;-82
2022/04/21 02:27:00;;;;;;;11.60;8.73;;;;;;;;;;5053303;28;20435;-82
2022/04/21 02:29:25;;;;;;;11.43;9.00;;;;;;;;;;5044187;28;20032;-82
2022/04/21 02:31:50;;;;;;;10.60;8.68;;;;;;;;;;5046667;28;20052;-81
2022/04/21 02:34:16;;;;;;;10.85;8.43;;;;;;;;;;5025620;28;20033;-81
2022/04/21 02:36:41;;;;;;;11.45;8.57;;;;;;;;;;5031583;28;20479;-80
2022/04/21 02:39:06;;;;;;;10.10;8.63;;;;;;;;;;5061676;28;20013;-82
2022/04/21 02:41:32;;;;;;;11.48;8.70;;;;;;;;;;5049987;28;20524;-83
2022/04/21 02:43:57;;;;;;;11.65;8.45;;;;;;;;;;5069416;28;20497;-82
2022/04/21 02:46:24;;;;;;;13.70;8.63;;;;;;;;;;5055963;28;20570;-81
2022/04/21 02:48:50;;;;;;;12.38;8.32;;;;;;;;;;5057771;28;20021;-82
2022/04/21 02:51:16;;;;;;;10.70;8.55;;;;;;;;;;5045723;28;20115;-81
2022/04/21 02:59:10;;;;;;;11.02;8.40;;;;;;;;;;5054289;28;20054;-83
2022/04/21 03:01:35;;;;;;;12.40;9.02;;;;;;;;;;5049820;28;20135;-81
2022/04/21 03:04:01;;;;;;;8.93;7.97;;;;;;;;;;5054679;28;20139;-80
2022/04/21 03:06:26;;;;;;;11.95;9.10;;;;;;;;;;5044378;28;20107;-82
2022/04/21 03:08:51;;;;;;;10.52;8.48;;;;;;;;;;5053135;28;20052;-80
2022/04/21 03:11:18;;;;;;;12.13;9.23;;;;;;;;;;5054938;28;20071;-81
2022/04/21 03:13:43;;;;;;;9.90;8.90;;;;;;;;;;5048473;28;20607;-79
2022/04/21 03:16:09;;;;;;;10.68;8.82;;;;;;;;;;5048081;28;20526;-81
2022/04/21 03:18:34;;;;;;;10.50;9.40;;;;;;;;;;5052138;28;20337;-80
2022/04/21 03:26:28;;;;;;;10.77;9.13;;;;;;;;;;5067666;28;20116;-81
2022/04/21 03:28:53;;;;;;;10.77;8.02;;;;;;;;;;5049683;28;20115;-82
2022/04/21 03:31:23;;;;;;;10.55;8.38;;;;;;;;;;5053788;28;20040;-81
2022/04/21 03:33:50;;;;;;;10.32;7.78;;;;;;;;;;5053835;28;20017;-81
2022/04/21 03:36:15;;;;;;;11.32;9.02;;;;;;;;;;5050118;28;20447;-81
2022/04/21 03:38:40;;;;;;;11.70;8.75;;;;;;;;;;5056107;28;20162;-82
2022/04/21 03:41:06;;;;;;;12.30;8.82;;;;;;;;;;5047223;28;20529;-81
2022/04/21 03:43:31;;;;;;;10.25;8.35;;;;;;;;;;5044102;28;20368;-81
2022/04/21 03:45:56;;;;;;;12.25;8.88;;;;;;;;;;5031795;28;20036;-81
2022/04/21 03:48:23;;;;;;;11.60;8.80;;;;;;;;;;5042346;28;20176;-80
2022/04/21 03:50:48;;;;;;;10.90;8.45;;;;;;;;;;5043958;28;20055;-82
2022/04/21 03:53:14;;;;;;;10.90;8.68;;;;;;;;;;5055637;28;20085;-81
2022/04/21 03:55:39;;;;;;;12.05;9.15;;;;;;;;;;5046616;28;20273;-82
2022/04/21 03:58:04;;;;;;;10.38;8.48;;;;;;;;;;5027561;28;20021;-82
2022/04/21 04:00:30;;;;;;;11.57;8.77;;;;;;;;;;5058020;28;20032;-80
2022/04/21 04:02:56;;;;;;;11.00;8.18;;;;;;;;;;5054499;28;20025;-81
2022/04/21 04:05:21;;;;;;;13.20;8.52;;;;;;;;;;5056521;28;20063;-82
2022/04/21 04:13:16;;;;;;;12.60;8.95;;;;;;;;;;5067662;28;20058;-79
2022/04/21 04:15:42;;;;;;;11.40;8.88;;;;;;;;;;5042514;28;20032;-81
2022/04/21 04:18:08;;;;;;;10.40;8.43;;;;;;;;;;5056422;28;20029;-80
2022/04/21 04:20:34;;;;;;;10.75;9.15;;;;;;;;;;5060630;28;20031;-82
2022/04/21 04:22:59;;;;;;;11.50;8.30;;;;;;;;;;5042494;28;20491;-81
2022/04/21 04:25:25;;;;;;;11.48;8.25;;;;;;;;;;5043082;28;20021;-81
2022/04/21 04:27:50;;;;;;;9.95;8.63;;;;;;;;;;5031522;28;20475;-81
2022/04/21 04:30:16;;;;;;;10.68;8.55;;;;;;;;;;5043244;28;20036;-81
2022/04/21 04:32:41;;;;;;;10.40;8.27;;;;;;;;;;5032371;28;20028;-81
2022/04/21 04:35:06;;;;;;;11.63;8.73;;;;;;;;;;5056406;28;20111;-82
2022/04/21 04:37:32;;;;;;;11.57;8.38;;;;;;;;;;5048513;28;20056;-81
2022/04/21 04:39:59;;;;;;;10.10;8.80;;;;;;;;;;5063860;28;20021;-82
2022/04/21 04:42:26;;;;;;;12.55;8.75;;;;;;;;;;5064863;28;20095;-81
2022/04/21 04:47:35;;;;;;;9.93;8.30;;;;;;;;;;5046421;28;20032;-81
2022/04/21 04:50:01;;;;;;;10.90;8.82;;;;;;;;;;5053407;28;20025;-81
2022/04/21 04:52:26;;;;;;;10.63;9.02;;;;;;;;;;5062816;28;20043;-81
2022/04/21 04:54:52;;;;;;;12.90;9.57;;;;;;;;;;5064426;28;20020;-81
2022/04/21 04:57:17;;;;;;;12.02;8.73;;;;;;;;;;5063561;28;20024;-82
2022/04/21 04:59:42;;;;;;;11.23;8.18;;;;;;;;;;5027470;28;20459;-81
2022/04/21 05:02:07;;;;;;;11.48;8.45;;;;;;;;;;5064890;28;20498;-81
2022/04/21 05:04:33;;;;;;;12.55;9.20;;;;;;;;;;5040582;28;20423;-80
2022/04/21 05:06:58;;;;;;;13.82;8.82;;;;;;;;;;5056529;28;20032;-81
2022/04/21 05:09:28;;;;;;;15.50;8.70;;;;;;;;;;5038917;28;20135;-81
2022/04/21 05:11:54;;;;;;;10.95;8.40;;;;;;;;;;5064257;28;20028;-81
2022/04/21 05:14:19;;;;;;;10.48;8.60;;;;;;;;;;5061380;28;20032;-81
2022/04/21 05:16:45;;;;;;;11.63;8.32;;;;;;;;;;5057520;28;20335;-82
2022/04/21 05:19:10;;;;;;;10.43;8.57;;;;;;;;;;5050491;28;20078;-81
2022/04/21 05:21:36;;;;;;;11.07;8.23;;;;;;;;;;5050420;28;20020;-83
2022/04/21 05:24:02;;;;;;;13.40;8.70;;;;;;;;;;5062348;28;20367;-81
2022/04/21 05:26:31;;;;;;;13.73;8.65;;;;;;;;;;5045846;28;20038;-82
2022/04/21 05:29:00;;;;;;;12.82;8.18;;;;;;;;;;5049336;28;20072;-82
2022/04/21 05:31:27;;;;;;;11.75;9.00;;;;;;;;;;5053012;28;20501;-81
2022/04/21 05:33:53;;;;;;;10.32;8.10;;;;;;;;;;5036923;28;20106;-82
2022/04/21 05:36:18;;;;;;;11.15;9.05;;;;;;;;;;5049327;28;20417;-80
2022/04/21 05:38:46;;;;;;;9.50;8.38;;;;;;;;;;5053125;28;20021;-81
2022/04/21 05:41:13;;;;;;;9.48;8.48;;;;;;;;;;5058147;28;20119;-81
2022/04/21 05:43:45;;;;;;;9.00;7.88;;;;;;;;;;5045612;28;20486;-82
2022/04/21 05:46:12;;;;;;;9.60;8.60;;;;;;;;;;5063507;28;20552;-83
2022/04/21 05:48:37;;;;;;;11.43;8.43;;;;;;;;;;5056713;28;20449;-82
2022/04/21 05:51:03;;;;;;;11.10;8.70;;;;;;;;;;5053829;28;20437;-82
2022/04/21 05:53:34;;;;;;;13.88;8.07;;;;;;;;;;5054524;28;20627;-81
2022/04/21 05:56:00;;;;;;;10.13;7.93;;;;;;;;;;5046636;28;20120;-80
2022/04/21 05:58:25;;;;;;;9.65;8.20;;;;;;;;;;5049457;28;20171;-82
2022/04/21 06:00:51;;;;;;;9.70;7.43;;;;;;;;;;5048230;28;20032;-79
2022/04/21 06:03:21;;;;;;;13.13;9.30;;;;;;;;;;5053567;28;20364;-82
2022/04/21 06:05:46;;;;;;;11.20;8.32;;;;;;;;;;5059484;28;20027;-81
2022/04/21 06:08:11;;;;;;;11.00;8.38;;;;;;;;;;5055776;28;20454;-81
2022/04/21 06:10:37;;;;;;;10.10;8.30;;;;;;;;;;5038807;28;20024;-80
2022/04/21 06:13:03;;;;;;;11.73;8.63;;;;;;;;;;5061021;28;20024;-81
2022/04/21 06:15:31;;;;;;;10.57;8.25;;;;;;;;;;5052290;28;20020;-81
2022/04/21 06:18:16;;;;;;;9.63;7.90;;;;;;;;;;5052158;28;20463;-77
2022/04/21 06:20:41;;;;;;;10.85;8.30;;;;;;;;;;5045611;28;20115;-79
2022/04/21 06:23:07;;;;;;;9.90;8.73;;;;;;;;;;5067947;28;20100;-79
2022/04/21 06:25:33;;;;;;;10.07;8.48;;;;;;;;;;5061973;28;20028;-80
2022/04/21 06:27:59;;;;;;;10.48;8.27;;;;;;;;;;5074843;28;20031;-79
2022/04/21 06:30:24;;;;;;;9.90;8.57;;;;;;;;;;5076891;28;20032;-79
2022/04/21 06:32:49;;;;;;;9.60;7.78;;;;;;;;;;5064836;28;20281;-80
2022/04/21 06:35:15;;;;;;;10.60;8.60;;;;;;;;;;5059362;28;20403;-80
2022/04/21 06:37:42;;;;;;;11.15;7.78;;;;;;;;;;5061235;28;20037;-80
2022/04/21 06:40:08;;;;;;;9.43;7.60;;;;;;;;;;5064580;28;20471;-81
2022/04/21 06:42:43;;;;;;;11.05;7.95;;;;;;;;;;5057352;28;20033;-79
2022/04/21 06:48:02;;;;;;;9.85;8.02;;;;;;;;;;5061276;28;20538;-81
2022/04/21 06:50:28;;;;;;;12.05;8.35;;;;;;;;;;5047213;28;20028;-81
2022/04/21 06:52:54;;;;;;;8.45;7.55;;;;;;;;;;5048475;28;20814;-79
2022/04/21 06:55:19;;;;;;;8.70;7.47;;;;;;;;;;5059975;28;20059;-80
2022/04/21 06:57:44;;;;;;;9.80;7.55;;;;;;;;;;5052859;28;20024;-79
2022/04/21 07:00:10;;;;;;;11.02;7.63;;;;;;;;;;5032007;28;20263;-80
2022/04/21 07:02:41;;;;;;;7.28;6.43;;;;;;;;;;5042193;28;20028;-81
2022/04/21 07:05:07;;;;;;;7.68;6.88;;;;;;;;;;5050144;28;20024;-82
2022/04/21 07:07:33;;;;;;;10.90;7.00;;;;;;;;;;5061844;28;20056;-82
2022/04/21 07:09:58;;;;;;;8.07;6.97;;;;;;;;;;5035364;28;20576;-80
2022/04/21 07:12:27;;;;;;;9.90;7.15;;;;;;;;;;5037477;28;20020;-79
2022/04/21 07:14:53;;;;;;;9.10;6.95;;;;;;;;;;5023792;28;20534;-80
2022/04/21 07:17:20;;;;;;;8.30;6.43;;;;;;;;;;5026385;28;20029;-80
2022/04/21 07:19:45;;;;;;;8.32;6.57;;;;;;;;;;5032768;28;20021;-80
2022/04/21 07:22:10;;;;;;;7.40;6.07;;;;;;;;;;5045549;28;20249;-81
2022/04/21 07:24:36;;;;;;;7.35;6.20;;;;;;;;;;5041762;28;20116;-80
2022/04/21 07:27:01;;;;;;;7.97;6.15;;;;;;;;;;5046676;28;20049;-81
2022/04/21 07:29:27;;;;;;;7.78;5.65;;;;;;;;;;5032050;28;20393;-79
2022/04/21 07:31:53;;;;;;;7.00;6.30;;;;;;;;;;5016725;28;20467;-81
2022/04/21 07:34:20;;;;;;;8.45;5.90;;;;;;;;;;5021921;28;20033;-80
2022/04/21 07:36:46;;;;;;;8.52;5.65;;;;;;;;;;5020320;28;20052;-74
2022/04/21 07:39:11;;;;;;;7.05;5.40;;;;;;;;;;5036735;28;20136;-76
2022/04/21 07:41:37;;;;;;;7.97;5.85;;;;;;;;;;5040466;28;20091;-74
2022/04/21 07:44:02;;;;;;;9.73;6.13;;;;;;;;;;5003989;28;20133;-77
2022/04/21 07:46:27;;;;;;;7.68;5.53;;;;;;;;;;5037725;28;20407;-80
2022/04/21 07:51:37;;;;;;;9.63;6.32;;;;;;;;;;5032261;28;20040;-79
2022/04/21 07:54:02;;;;;;;11.30;5.63;;;;;;;;;;5004497;28;20444;-78
2022/04/21 07:56:28;;;;;;;6.55;5.85;;;;;;;;;;5025210;28;20043;-76
2022/04/21 07:58:53;;;;;;;6.40;5.20;;;;;;;;;;5041906;28;20448;-76
2022/04/21 08:01:18;;;;;;;6.53;5.38;;;;;;;;;;5038080;28;20044;-76
2022/04/21 08:03:44;;;;;;;7.85;5.32;;;;;;;;;;5004433;28;20030;-76
2022/04/21 08:06:12;;;;;;;11.95;5.90;;;;;;;;;;5014898;28;20087;-79
2022/04/21 08:08:40;;;;;;;6.13;5.28;;;;;;;;;;5042995;28;20331;-77
2022/04/21 08:11:05;;;;;;;5.82;5.28;;;;;;;;;;5042982;28;20108;-76
2022/04/21 08:13:31;;;;;;;8.52;5.75;;;;;;;;;;5053935;28;20111;-78
2022/04/21 08:15:56;;;;;;;8.85;6.55;;;;;;;;;;5058882;28;20104;-80
2022/04/21 08:18:23;;;;;;;6.28;5.47;;;;;;;;;;5027301;28;20184;-77
2022/04/21 08:20:48;;;;;;;8.32;5.43;;;;;;;;;;5046904;28;20056;-78
2022/04/21 08:23:14;;;;;;;7.57;5.63;;;;;;;;;;5055830;28;20123;-77
2022/04/21 08:33:55;;;;;;;6.30;4.70;;;;;;;;;;5043010;28;20066;-77
2022/04/21 08:36:21;;;;;;;5.28;4.10;;;;;;;;;;5054928;28;20056;-78
2022/04/21 08:38:47;;;;;;;8.40;4.40;;;;;;;;;;5046333;28;20021;-78
2022/04/21 08:41:17;;;;;;;5.15;4.25;;;;;;;;;;5032895;28;20032;-79
2022/04/21 08:43:44;;;;;;;6.47;4.57;;;;;;;;;;5045650;28;20421;-77
2022/04/21 08:46:12;;;;;;;4.90;4.50;;;;;;;;;;5041554;28;20029;-78
2022/04/21 08:48:38;;;;;;;7.85;4.60;;;;;;;;;;5039484;28;20384;-77
2022/04/21 08:51:07;;;;;;;7.80;5.00;;;;;;;;;;5041062;28;20360;-77
2022/04/21 08:53:33;;;;;;;4.90;4.30;;;;;;;;;;5041543;28;20507;-78
2022/04/21 08:55:59;;;;;;;6.38;4.80;;;;;;;;;;5041987;28;20029;-78
2022/04/21 08:58:26;;;;;;;6.03;4.30;;;;;;;;;;5040068;28;20021;-78
2022/04/21 09:00:54;;;;;;;7.45;4.57;;;;;;;;;;5022754;28;20031;-77
2022/04/21 09:03:22;;;;;;;5.68;4.70;;;;;;;;;;5043688;28;20044;-78
2022/04/21 09:05:48;;;;;;;5.78;5.03;;;;;;;;;;5040360;28;20013;-77
2022/04/21 09:08:22;;;;;;;8.07;4.40;;;;;;;;;;5040406;28;20414;-80
2022/04/21 09:11:00;;;;;;;4.40;4.00;;;;;;;;;;5043873;28;20024;-76
2022/04/21 09:13:36;;;;;;;5.35;4.05;;;;;;;;;;5061126;28;20035;-78
2022/04/21 09:16:02;;;;;;;5.85;4.22;;;;;;;;;;5053975;28;20114;-79
2022/04/21 09:18:38;;;;;;;6.35;4.70;;;;;;;;;;5054867;28;20055;-78
2022/04/21 09:21:07;;;;;;;4.82;4.05;;;;;;;;;;5049355;28;20016;-75
2022/04/21 09:23:33;;;;;;;8.68;5.10;;;;;;;;;;5046419;28;20071;-78
2022/04/21 09:26:05;;;;;;;6.07;5.20;;;;;;;;;;5062867;28;20447;-78
2022/04/21 09:28:31;;;;;;;7.55;5.45;;;;;;;;;;5047997;28;20053;-78
2022/04/21 09:30:57;;;;;;;7.97;5.63;;;;;;;;;;5059575;28;20056;-78
2022/04/21 09:33:36;;;;;;;6.78;4.82;;;;;;;;;;5045096;28;20383;-78
2022/04/21 09:36:03;;;;;;;6.68;4.68;;;;;;;;;;5046795;28;20017;-77
2022/04/21 09:38:33;;;;;;;6.05;4.45;;;;;;;;;;5042858;28;20070;-76
2022/04/21 09:41:08;;;;;;;8.45;5.10;;;;;;;;;;5028500;28;20024;-77
2022/04/21 09:43:37;;;;;;;3.75;3.42;;;;;;;;;;5057425;28;20024;-78
2022/04/21 09:46:11;;;;;;;9.38;3.60;;;;;;;;;;5050384;28;20111;-79
2022/04/21 09:48:37;;;;;;;7.93;4.18;;;;;;;;;;5043358;28;20463;-77
2022/04/21 09:51:08;;;;;;;7.88;4.40;;;;;;;;;;5056475;28;20040;-79
2022/04/21 09:53:44;;;;;;;5.38;4.80;;;;;;;;;;5059966;28;20021;-78
2022/04/21 09:56:09;;;;;;;6.70;4.05;;;;;;;;;;5053872;28;20678;-79
2022/04/21 09:58:38;;;;;;;4.75;3.17;;;;;;;;;;5051816;28;20024;-80
2022/04/21 10:01:04;;;;;;;5.53;3.70;;;;;;;;;;5047527;28;20096;-83
2022/04/21 10:03:35;;;;;;;8.05;4.20;;;;;;;;;;5027253;28;20463;-82
2022/04/21 10:06:01;;;;;;;5.22;3.72;;;;;;;;;;5058905;28;20013;-82
2022/04/21 10:08:29;;;;;;;3.20;2.60;;;;;;;;;;5031899;28;20499;-80
2022/04/21 10:10:58;;;;;;;3.30;2.45;;;;;;;;;;5042636;28;20036;-81
2022/04/21 10:13:24;;;;;;;3.35;2.78;;;;;;;;;;5056831;28;20028;-82
2022/04/21 10:15:53;;;;;;;2.67;2.47;;;;;;;;;;5046699;28;20025;-83
2022/04/21 10:18:28;;;;;;;6.20;2.90;;;;;;;;;;5060015;28;20036;-82
2022/04/21 10:20:58;;;;;;;7.97;2.55;;;;;;;;;;5064920;28;20021;-82
2022/04/21 10:23:28;;;;;;;5.53;2.80;;;;;;;;;;5065001;28;20099;-80
2022/04/21 10:26:00;;;;;;;4.75;2.60;;;;;;;;;;5045964;28;20040;-81
2022/04/21 10:28:36;;;;;;;3.33;3.00;;;;;;;;;;5053665;28;20013;-81
2022/04/21 10:31:23;;;;;;;5.35;3.60;;;;;;;;;;5063376;28;20060;-82
2022/04/21 10:33:58;;;;;;;5.63;3.72;;;;;;;;;;5047464;28;20016;-83
2022/04/21 10:36:33;;;;;;;5.40;3.88;;;;;;;;;;5053120;28;20017;-81
2022/04/21 10:39:17;;;;;;;4.75;3.35;;;;;;;;;;5046250;28;20021;-81
2022/04/21 10:41:42;;;;;;;5.45;3.67;;;;;;;;;;5065111;28;20146;-79
2022/04/21 10:44:26;;;;;;;7.97;3.95;;;;;;;;;;5063547;28;20028;-82
2022/04/21 10:47:11;;;;;;;4.75;3.30;;;;;;;;;;5044063;28;20067;-79
2022/04/21 10:49:52;;;;;;;4.20;3.78;;;;;;;;;;5037003;28;20395;-81
2022/04/21 10:57:40;;;;;;;4.75;3.33;;;;;;;;;;5056308;28;20240;-78
2022/04/21 11:00:09;;;;;;;4.55;4.10;;;;;;;;;;5055597;28;20020;-80
2022/04/21 11:02:42;;;;;;;4.50;3.70;;;;;;;;;;5051590;28;20590;-82
2022/04/21 11:05:22;;;;;;;5.40;3.60;;;;;;;;;;5051721;28;20028;-81
2022/04/21 11:07:51;;;;;;;5.13;3.78;;;;;;;;;;5060212;28;20024;-80
2022/04/21 11:10:26;;;;;;;5.85;4.38;;;;;;;;;;5048835;28;20063;-79
2022/04/21 11:12:52;;;;;;;3.60;3.25;;;;;;;;;;5061619;28;20038;-79
2022/04/21 11:15:40;;;;;;;6.80;3.53;;;;;;;;;;5051343;28;20398;-81
2022/04/21 11:18:31;;;;;;;6.43;3.45;;;;;;;;;;5050135;28;20397;-77
2022/04/21 11:21:35;;;;;;;7.28;3.53;;;;;;;;;;5051593;28;20016;-79
2022/04/21 11:24:01;;;;;;;5.45;3.85;;;;;;;;;;5030616;28;20017;-79
2022/04/21 11:26:30;;;;;;;3.75;3.45;;;;;;;;;;5025221;28;20024;-79
2022/04/21 11:29:01;;;;;;;4.50;3.20;;;;;;;;;;5054423;28;20132;-79
2022/04/21 11:31:26;;;;;;;3.65;2.92;;;;;;;;;;5061835;28;20024;-78
2022/04/21 11:33:52;;;;;;;6.65;3.80;;;;;;;;;;5059472;28;20467;-79
2022/04/21 11:36:17;;;;;;;3.28;2.92;;;;;;;;;;5036480;28;20032;-80
2022/04/21 11:38:43;;;;;;;4.95;3.53;;;;;;;;;;5029656;28;20112;-78
2022/04/21 11:41:09;;;;;;;3.47;3.17;;;;;;;;;;5056069;28;20169;-79
2022/04/21 11:43:38;;;;;;;3.75;3.00;;;;;;;;;;5057142;28;20025;-81
2022/04/21 11:46:05;;;;;;;3.15;2.78;;;;;;;;;;5048015;28;20104;-79
2022/04/21 11:48:37;;;;;;;5.03;2.90;;;;;;;;;;5054977;28;20051;-78
2022/04/21 11:51:03;;;;;;;8.00;2.92;;;;;;;;;;5029012;28;20049;-80
2022/04/21 11:53:36;;;;;;;4.43;2.75;;;;;;;;;;5039055;28;20023;-79
2022/04/21 11:56:04;;;;;;;4.95;2.40;;;;;;;;;;5062482;28;20088;-78
2022/04/21 11:58:37;;;;;;;3.60;2.67;;;;;;;;;;5055983;28;20369;-80
2022/04/21 12:06:37;;;;;;;3.53;2.70;;;;;;;;;;5058963;28;20078;-80
2022/04/21 12:09:07;;;;;;;4.22;3.03;;;;;;;;;;5019411;28;20056;-80
2022/04/21 12:11:33;;;;;;;4.20;3.30;;;;;;;;;;5043448;28;20036;-81
2022/04/21 12:13:59;;;;;;;4.05;2.90;;;;;;;;;;5048191;28;20440;-79
2022/04/21 12:16:36;;;;;;;4.55;3.17;;;;;;;;;;5062372;28;20056;-80
2022/04/21 12:19:15;;;;;;;4.47;2.92;;;;;;;;;;5046609;28;20017;-80
2022/04/21 12:21:41;;;;;;;3.17;2.70;;;;;;;;;;5046913;28;20571;-79
2022/04/21 12:24:14;;;;;;;3.85;3.25;;;;;;;;;;5039682;28;20104;-79
2022/04/21 12:26:46;;;;;;;7.43;3.05;;;;;;;;;;5043879;28;20029;-79
2022/04/21 12:29:11;;;;;;;4.83;3.03;;;;;;;;;;5045343;28;20029;-79
2022/04/21 12:32:03;;;;;;;4.68;3.25;;;;;;;;;;5043836;28;20565;-82
2022/04/21 12:34:29;;;;;;;5.60;3.35;;;;;;;;;;5046062;28;20037;-78
2022/04/21 12:36:56;;;;;;;16.45;4.30;;;;;;;;;;5048920;28;20500;-78
2022/04/21 12:39:22;;;;;;;4.60;3.30;;;;;;;;;;5050638;28;20082;-78
2022/04/21 12:41:48;;;;;;;4.50;3.17;;;;;;;;;;5060870;28;20024;-77
2022/04/21 12:44:13;;;;;;;4.53;3.15;;;;;;;;;;5057872;28;20068;-77
2022/04/21 12:46:41;;;;;;;4.22;3.50;;;;;;;;;;5063700;28;20017;-77
2022/04/21 12:49:07;;;;;;;3.95;3.45;;;;;;;;;;5023790;28;20029;-75
2022/04/21 12:51:33;;;;;;;5.07;3.63;;;;;;;;;;5038763;28;20140;-79
2022/04/21 12:54:00;;;;;;;4.55;3.10;;;;;;;;;;5059800;28;20135;-77
2022/04/21 12:56:35;;;;;;;6.60;3.90;;;;;;;;;;5047267;28;20677;-77
2022/04/21 12:59:01;;;;;;;5.68;3.83;;;;;;;;;;5045224;28;20064;-77
2022/04/21 13:01:26;;;;;;;6.25;4.40;;;;;;;;;;5062395;28;20426;-75
2022/04/21 13:03:51;;;;;;;7.15;4.13;;;;;;;;;;5059373;28;20274;-74
2022/04/21 13:06:27;;;;;;;6.15;4.60;;;;;;;;;;5064391;28;20505;-77
2022/04/21 13:08:53;;;;;;;5.70;4.28;;;;;;;;;;5063505;28;20131;-76
2022/04/21 13:11:18;;;;;;;4.20;3.67;;;;;;;;;;5065226;28;20029;-77
2022/04/21 13:13:43;;;;;;;6.47;4.65;;;;;;;;;;5033547;28;20083;-75
2022/04/21 13:16:12;;;;;;;6.40;4.28;;;;;;;;;;5031098;28;20036;-75
2022/04/21 13:18:37;;;;;;;5.43;4.63;;;;;;;;;;5041201;28;20036;-76
2022/04/21 13:23:46;;;;;;;5.93;4.75;;;;;;;;;;5061313;28;20527;-75
2022/04/21 13:26:12;;;;;;;6.97;4.85;;;;;;;;;;5066190;28;20056;-73
2022/04/21 13:28:37;;;;;;;6.82;4.95;;;;;;;;;;5050328;28;20114;-74
2022/04/21 13:33:47;;;;;;;7.18;4.43;;;;;;;;;;5045888;28;20440;-74
2022/04/21 13:36:13;;;;;;;6.07;4.50;;;;;;;;;;5047056;28;20025;-74
2022/04/21 13:38:38;;;;;;;10.63;4.68;;;;;;;;;;5046057;28;20028;-74
2022/04/21 13:41:04;;;;;;;5.53;4.82;;;;;;;;;;5067676;28;20096;-73
2022/04/21 13:43:29;;;;;;;11.70;5.30;;;;;;;;;;5060130;28;20216;-74
2022/04/21 13:45:56;;;;;;;6.45;4.97;;;;;;;;;;5065072;28;20264;-71
2022/04/21 13:48:22;;;;;;;8.27;4.65;;;;;;;;;;5061875;28;20023;-75
2022/04/21 13:50:47;;;;;;;7.80;4.72;;;;;;;;;;5064084;28;20158;-75
2022/04/21 13:53:16;;;;;;;4.93;3.97;;;;;;;;;;5064167;28;20116;-74
2022/04/21 13:55:41;;;;;;;4.85;4.35;;;;;;;;;;5048391;28;20024;-74
2022/04/21 13:58:07;;;;;;;6.82;4.72;;;;;;;;;;5064773;28;20043;-79
2022/04/21 14:00:32;;;;;;;15.68;4.88;;;;;;;;;;5067057;28;20442;-77
2022/04/21 14:02:58;;;;;;;5.45;4.35;;;;;;;;;;5055413;28;20494;-76
2022/04/21 14:05:26;;;;;;;4.80;4.40;;;;;;;;;;5035074;28;20611;-76
2022/04/21 14:07:51;;;;;;;6.60;4.10;;;;;;;;;;5048329;28;20048;-78
2022/04/21 14:10:17;;;;;;;5.53;4.07;;;;;;;;;;5035711;28;20307;-77
2022/04/21 14:12:42;;;;;;;6.43;4.25;;;;;;;;;;5046149;28;20629;-77
2022/04/21 14:15:07;;;;;;;4.38;3.78;;;;;;;;;;5051335;28;20050;-77
2022/04/21 14:17:33;;;;;;;8.07;3.92;;;;;;;;;;5064593;28;20109;-77
2022/04/21 14:19:59;;;;;;;4.55;3.40;;;;;;;;;;5057116;28;20074;-75
2022/04/21 14:22:24;;;;;;;5.65;3.35;;;;;;;;;;5059026;28;20024;-78
2022/04/21 14:24:51;;;;;;;5.32;3.60;;;;;;;;;;5063175;28;20009;-77
2022/04/21 14:27:17;;;;;;;6.28;3.90;;;;;;;;;;5064022;28;20043;-75
2022/04/21 14:29:42;;;;;;;5.00;3.75;;;;;;;;;;5063575;28;20020;-78
2022/04/21 14:32:09;;;;;;;5.72;3.60;;;;;;;;;;5046678;28;20483;-78
2022/04/21 14:34:36;;;;;;;4.75;3.45;;;;;;;;;;5057771;28;20326;-77
2022/04/21 14:37:02;;;;;;;4.15;3.55;;;;;;;;;;5064710;28;20070;-78
2022/04/21 14:44:57;;;;;;;4.72;3.30;;;;;;;;;;5035173;28;20435;-78
2022/04/21 14:47:23;;;;;;;4.07;3.45;;;;;;;;;;5017354;28;20371;-78
2022/04/21 14:49:48;;;;;;;5.13;3.28;;;;;;;;;;5017043;28;20490;-79
2022/04/21 14:52:14;;;;;;;6.57;3.42;;;;;;;;;;5018697;28;20036;-76
2022/04/21 14:54:40;;;;;;;5.63;3.70;;;;;;;;;;5014007;28;20315;-78
2022/04/21 14:57:08;;;;;;;4.82;3.45;;;;;;;;;;5035940;28;20321;-77
2022/04/21 14:59:34;;;;;;;5.32;3.95;;;;;;;;;;5023977;28;20533;-76
2022/04/21 15:01:59;;;;;;;4.82;3.65;;;;;;;;;;5044317;28;20017;-78
2022/04/21 15:04:24;;;;;;;3.90;3.60;;;;;;;;;;5049430;28;20035;-78
2022/04/21 15:06:49;;;;;;;5.78;4.00;;;;;;;;;;5052530;28;20060;-77
2022/04/21 15:09:16;;;;;;;6.32;3.55;;;;;;;;;;5040092;28;20193;-78
2022/04/21 15:11:44;;;;;;;4.88;3.53;;;;;;;;;;5043253;28;20024;-76
2022/04/21 15:14:09;;;;;;;4.00;3.47;;;;;;;;;;5054345;28;20034;-77
2022/04/21 15:16:34;;;;;;;6.70;3.67;;;;;;;;;;5059997;28;20250;-78
2022/04/21 15:19:00;;;;;;;5.47;3.63;;;;;;;;;;5047821;28;20025;-79
2022/04/21 15:21:25;;;;;;;5.68;4.03;;;;;;;;;;5051464;28;20104;-77
2022/04/21 15:23:50;;;;;;;7.40;3.25;;;;;;;;;;5058894;28;20039;-78
2022/04/21 15:26:16;;;;;;;7.75;4.00;;;;;;;;;;5061106;28;20033;-78
2022/04/21 15:28:41;;;;;;;4.90;3.70;;;;;;;;;;5048084;28;20052;-77
2022/04/21 15:31:08;;;;;;;6.97;3.88;;;;;;;;;;5050613;28;20025;-79
2022/04/21 15:33:34;;;;;;;5.15;3.67;;;;;;;;;;5032631;28;20021;-72
2022/04/21 15:36:00;;;;;;;5.05;3.90;;;;;;;;;;5025375;28;20227;-72
2022/04/21 15:38:28;;;;;;;5.90;4.07;;;;;;;;;;5045959;28;20047;-73
2022/04/21 15:40:53;;;;;;;4.47;4.07;;;;;;;;;;5039971;28;20013;-72
2022/04/21 15:43:19;;;;;;;6.20;3.90;;;;;;;;;;5057734;28;20039;-74